Aérodrome :
LOGIN :

S'inscrire | Disclaimer

   EN    FR    IT 

 










Légende :    VFR   VFR Marginal   IFR   IFR Intensif   IFR Très Intensif
Visi : 
Plafond : 
>= 8 km
>= 3000ft
5 à 8 km
1000 à 3000 ft
1500m à 5 km
500 à 1000 ft
800 à 1500m
200 à 500 ft
< 800m
< 200 ft
Symboles :   Orages  Brouillard  Fortes neiges  Fortes précipitations  Vent > 20 kt
SIGMETs :   Divers  Orages  Givrage  Turbulence  Onde Orograph.  Cendres Volcan.







- Altitude de l'aérodrome : 204 ft
- Code IATA : AGF
- Voir les cartes d'approche


LFBA - Agen

DERNIER METAR :
  • 180700Z AUTO 22008KT 190V250 9999 OVC032 09/06 Q1023 NOSIG

METARs EXPIRÉS :
  • 180630Z AUTO 21008KT 180V240 9999 OVC032 09/06 Q1023 NOSIG
  • 180600Z AUTO 22007KT 200V260 9999 FEW022 OVC035 09/06 Q1023 NOSIG
  • 180530Z AUTO 23005KT 200V270 9999 SCT023 OVC034 09/06 Q1023 NOSIG
  • 180500Z AUTO 22006KT 190V250 9999 SCT038 OVC046 08/06 Q1023
  • 180430Z AUTO 22007KT 9999 -RA FEW023 SCT030 OVC040 08/06 Q1023

TAF TAF LFBA
Valide du 18 à 06h jusqu'au 18 à 15h UTC


180500Z 1806/1815 24010KT 9999 BKN040
TEMPO 1810/1815 BKN015
Pas de NOTAMs connus pour ce terrain.
1 SIGMET publié pour la FIR Bordeaux (LFBB) :
 
Turbulence forte
LFBB SIGMET 2 VALID 180600/180900 LFPW
LFBB BORDEAUX FIR/UIR SEV TURB FCST NE OF LINE N4345 E00245 - N4715 E00130 SFC/FL080 STNR NC=



MET'MAP, la Météo Aéronautique d'un coup d'oeil ! - Copyright ORBIFLY Décembre 2007 - Disclaimer

ORBIFLY MET'MAP TEAM :

Programmation & Développement : Alexandra Zaïnal
Conception & Développement : Baudouin d'Aumeries
Co-Programmation & Développement : Marc-Olivier Méhu
Soutien technique & logistique : Manuel Goepfert

Contact : metmap@orbifly.com




SOURCES & CREDITS :

   NOAA